Terminal Aerodrome Forecast
Issued by NWS

Home | Current Version | Previous Version | Text Only | Print | Product List | Glossary On
Versions: 1 2 3 4 5 6 7 8 9 10 11 12 13 14 15
000
FTUS44 KLUB 232300
TAFCDS
TAF
KCDS 232338Z 2400/2424 16014G20KT P6SM FEW080 SCT200
     FM241000 34016KT P6SM SKC
      TEMPO 2412/2416 34024KT=

USA.gov is the U.S. government's official web portal to all federal, state and local government web resources and services.